Time;durP1;ratioP1;P1;durP2;ratioP2;P2;SDS_P1;SDS_P2;PMS_P1;PMS_P2;Temp;Humidity;BMP_temperature;BMP_pressure;BME280_temperature;BME280_humidity;BME280_pressure;Samples;Min_cycle;Max_cycle;Signal;HPM_P1;HPM_P2
2023/09/20 00:03:35;;;;;;;6.50;2.80;;;;;;;13.59;66.62;99964.47;31218580;28;97034;-67
2023/09/20 00:18:37;;;;;;;5.85;2.90;;;;;;;13.09;67.31;99970.63;31217401;28;96771;-68
2023/09/20 00:33:37;;;;;;;5.57;3.43;;;;;;;12.76;68.44;99965.78;31214771;27;97417;-67
2023/09/20 00:48:39;;;;;;;6.70;4.50;;;;;;;12.59;69.04;99981.25;31214771;28;96761;-68
2023/09/20 01:03:40;;;;;;;6.87;4.10;;;;;;;12.33;69.71;99979.91;31212564;28;96702;-68
2023/09/20 01:18:44;;;;;;;5.97;3.30;;;;;;;12.16;70.23;99984.63;31212659;28;96815;-67
2023/09/20 01:33:44;;;;;;;5.53;2.97;;;;;;;12.11;69.99;99979.03;31210257;28;97746;-67
2023/09/20 01:48:45;;;;;;;4.53;2.58;;;;;;;12.10;70.21;99982.72;31208569;28;114417;-68
2023/09/20 02:03:45;;;;;;;5.13;2.67;;;;;;;12.03;70.21;99979.13;31207979;28;98464;-68
2023/09/20 02:18:46;;;;;;;5.13;2.63;;;;;;;11.91;70.64;99975.25;31189298;28;96921;-68
2023/09/20 02:33:47;;;;;;;4.83;2.00;;;;;;;11.75;71.14;99982.38;31206118;28;97073;-67
2023/09/20 02:48:49;;;;;;;4.85;2.35;;;;;;;11.75;71.20;99981.56;31205492;28;97458;-68
2023/09/20 03:03:49;;;;;;;3.93;1.97;;;;;;;11.56;71.72;99981.06;31216542;27;97091;-68
2023/09/20 03:18:50;;;;;;;3.20;1.73;;;;;;;11.56;71.01;99975.75;31217773;28;103497;-68
2023/09/20 03:33:50;;;;;;;2.83;1.83;;;;;;;11.54;71.84;99972.44;31219541;28;97274;-67
2023/09/20 03:48:51;;;;;;;3.47;1.60;;;;;;;11.62;71.66;99974.22;31218473;28;109913;-68
2023/09/20 04:03:52;;;;;;;5.23;1.60;;;;;;;11.57;71.75;99966.75;31218401;27;96698;-69
2023/09/20 04:18:52;;;;;;;4.18;1.98;;;;;;;11.61;71.79;99973.38;31215541;28;97475;-68
2023/09/20 04:33:53;;;;;;;4.65;2.00;;;;;;;11.66;71.72;99981.66;31212182;28;109002;-68
2023/09/20 04:48:53;;;;;;;4.05;1.73;;;;;;;11.82;72.11;99983.34;31209595;28;96840;-68
2023/09/20 05:03:53;;;;;;;3.80;2.15;;;;;;;12.17;72.08;99994.28;31189490;28;108648;-68
2023/09/20 05:18:54;;;;;;;5.07;2.05;;;;;;;12.58;71.69;99992.13;31208138;28;109336;-68
2023/09/20 05:33:55;;;;;;;5.07;2.20;;;;;;;13.25;71.40;100016.88;31208003;28;105375;-69
2023/09/20 05:48:55;;;;;;;4.82;1.85;;;;;;;13.91;70.56;100005.84;31205282;28;96692;-69
2023/09/20 06:03:58;;;;;;;7.03;2.00;;;;;;;14.79;70.34;100021.34;31201857;28;97310;-72
2023/09/20 06:18:58;;;;;;;6.57;2.03;;;;;;;15.49;68.51;100034.44;31202827;28;97292;-69
2023/09/20 06:33:59;;;;;;;4.68;1.80;;;;;;;16.05;67.38;100048.47;31210534;27;108565;-74
2023/09/20 06:48:59;;;;;;;4.97;2.00;;;;;;;16.49;66.39;100054.94;31221854;28;98837;-80
2023/09/20 07:03:59;;;;;;;4.50;1.83;;;;;;;17.36;64.77;100057.22;31221023;28;97988;-66
2023/09/20 07:19:05;;;;;;;3.05;1.55;;;;;;;18.42;63.48;100072.63;31220899;28;96852;-70
2023/09/20 07:34:07;;;;;;;2.83;1.53;;;;;;;19.60;60.77;100078.53;31218784;28;97055;-67
2023/09/20 07:49:10;;;;;;;1.67;1.10;;;;;;;21.13;57.52;100063.16;31213839;27;96940;-66
2023/09/20 08:04:10;;;;;;;3.30;1.30;;;;;;;22.55;53.43;100047.66;31194242;28;96773;-67
2023/09/20 08:19:21;;;;;;;3.42;1.20;;;;;;;23.06;49.39;100055.56;31209465;28;97173;-68
2023/09/20 09:05:00;;;;;;;1.57;0.70;;;;;;;36.22;26.28;100027.09;31224199;27;96900;-67
2023/09/20 09:20:01;;;;;;;1.83;0.90;;;;;;;39.30;21.42;100017.00;31323545;27;97302;-80
2023/09/20 09:35:05;;;;;;;2.42;0.77;;;;;;;41.51;17.07;99996.53;31330757;27;110535;-72
2023/09/20 09:50:06;;;;;;;1.47;0.67;;;;;;;42.42;16.19;99998.78;31331731;27;97220;-70
2023/09/20 10:05:11;;;;;;;3.25;0.90;;;;;;;41.21;17.28;99983.47;31338033;27;97151;-72
2023/09/20 10:20:16;;;;;;;2.10;1.20;;;;;;;44.81;14.20;99982.78;31350248;27;97140;-66
2023/09/20 10:35:19;;;;;;;2.03;0.93;;;;;;;45.59;13.39;99953.31;31349410;27;96791;-66
2023/09/20 10:50:46;;;;;;;2.90;0.87;;;;;;;47.73;11.94;99940.72;31350136;27;97811;-66
2023/09/20 11:05:47;;;;;;;2.53;0.90;;;;;;;48.48;11.49;99926.34;31346222;27;97408;-66
2023/09/20 11:20:49;;;;;;;3.72;1.65;;;;;;;49.33;10.82;99910.59;31344505;27;97390;-68
2023/09/20 11:35:49;;;;;;;1.97;1.03;;;;;;;43.90;13.46;99903.72;31341621;27;97375;-71
2023/09/20 11:50:50;;;;;;;2.13;1.10;;;;;;;42.62;14.57;99904.06;31340572;27;104976;-64
2023/09/20 12:05:50;;;;;;;3.60;0.90;;;;;;;48.70;10.93;99886.31;31251888;27;97826;-75
2023/09/20 12:20:51;;;;;;;1.23;0.73;;;;;;;51.53;9.32;99875.53;31211497;28;97311;-65
2023/09/20 12:35:55;;;;;;;3.13;0.95;;;;;;;47.68;9.97;99867.84;31212202;27;97634;-76
2023/09/20 12:50:56;;;;;;;1.87;1.20;;;;;;;47.69;10.57;99832.78;31210971;27;97225;-75
2023/09/20 13:05:57;;;;;;;2.50;1.10;;;;;;;46.69;11.03;99818.47;31207610;28;97432;-83
2023/09/20 13:20:58;;;;;;;2.97;1.10;;;;;;;37.69;17.09;99787.97;31208795;28;97382;-77
2023/09/20 13:35:58;;;;;;;3.15;1.00;;;;;;;32.32;22.71;99782.97;31207665;28;97715;-70
2023/09/20 13:50:59;;;;;;;4.07;1.40;;;;;;;30.19;25.43;99777.38;31205527;27;96941;-76
2023/09/20 14:06:01;;;;;;;2.47;1.07;;;;;;;28.94;27.53;99759.19;31199871;27;97773;-65
2023/09/20 14:21:02;;;;;;;3.20;1.37;;;;;;;28.10;28.29;99747.19;31195147;28;97305;-69
2023/09/20 14:36:03;;;;;;;2.80;1.63;;;;;;;27.56;29.22;99749.34;31194634;28;97204;-67
2023/09/20 14:51:04;;;;;;;2.60;1.27;;;;;;;27.09;30.20;99745.53;31197629;27;97301;-64
2023/09/20 15:06:07;;;;;;;3.65;1.60;;;;;;;26.60;31.53;99745.47;31214555;28;97154;-64
2023/09/20 15:21:08;;;;;;;2.57;1.30;;;;;;;25.63;32.45;99747.81;31210975;28;97073;-65
2023/09/20 15:36:09;;;;;;;3.80;1.30;;;;;;;24.93;33.98;99739.63;31210021;28;97151;-66
2023/09/20 15:51:11;;;;;;;5.82;1.50;;;;;;;24.50;35.07;99737.22;31192083;27;97674;-68
2023/09/20 16:06:13;;;;;;;8.10;3.70;;;;;;;24.14;36.23;99742.69;31208688;27;96733;-79
2023/09/20 16:21:13;;;;;;;3.47;1.57;;;;;;;23.62;37.65;99731.72;31208225;28;97276;-67
2023/09/20 16:36:13;;;;;;;;;;;;;;;23.20;38.71;99712.84;31215134;27;97190;-76
2023/09/20 16:51:13;;;;;;;10.50;5.43;;;;;;;22.69;39.69;99714.19;31214072;27;97612;-74
2023/09/20 17:06:14;;;;;;;7.43;2.77;;;;;;;22.11;41.52;99722.13;31238334;27;97293;-66
2023/09/20 17:21:14;;;;;;;30.17;9.57;;;;;;;21.62;43.68;99726.56;31199803;27;97142;-72
2023/09/20 17:36:18;;;;;;;27.37;12.03;;;;;;;21.15;45.67;99731.66;31203452;28;98352;-69
2023/09/20 17:51:20;;;;;;;31.77;13.87;;;;;;;20.70;47.55;99738.91;31200427;28;97192;-68
2023/09/20 18:06:20;;;;;;;;;;;;;;;20.27;49.43;99742.00;31202338;28;97414;-71
2023/09/20 18:21:21;;;;;;;19.63;7.47;;;;;;;19.77;50.45;99748.13;31198535;28;97428;-75
2023/09/20 18:36:22;;;;;;;10.23;4.55;;;;;;;19.32;52.14;99738.88;31211737;28;97113;-77
2023/09/20 18:51:24;;;;;;;13.07;5.70;;;;;;;19.14;53.14;99750.69;31222518;28;96648;-63
2023/09/20 19:06:25;;;;;;;11.73;3.90;;;;;;;18.89;54.28;99757.16;31224802;28;97572;-68
2023/09/20 19:21:30;;;;;;;12.45;4.32;;;;;;;18.58;55.46;99753.72;31219136;28;97265;-73
2023/09/20 19:36:32;;;;;;;8.53;5.03;;;;;;;18.25;56.91;99760.47;31217536;27;97258;-67
2023/09/20 19:51:33;;;;;;;8.13;4.10;;;;;;;17.97;58.25;99749.50;31217757;28;97454;-67
2023/09/20 20:06:33;;;;;;;7.00;3.47;;;;;;;17.75;59.44;99755.38;31217436;28;96705;-64
2023/09/20 20:21:34;;;;;;;8.38;3.65;;;;;;;17.51;60.69;99743.66;31214471;28;96747;-63
2023/09/20 20:36:38;;;;;;;9.63;4.18;;;;;;;17.30;61.85;99742.28;31214231;28;100466;-64
2023/09/20 20:51:41;;;;;;;6.70;4.50;;;;;;;17.03;62.71;99750.66;31212819;27;101167;-65
2023/09/20 21:06:41;;;;;;;9.40;3.60;;;;;;;16.74;63.81;99737.69;31211938;28;97538;-71
2023/09/20 21:21:41;;;;;;;5.30;3.38;;;;;;;16.55;64.80;99741.34;31210496;28;97194;-65
2023/09/20 21:36:42;;;;;;;5.78;3.35;;;;;;;16.48;65.63;99725.28;31209065;28;96732;-66
2023/09/20 21:51:43;;;;;;;8.77;3.63;;;;;;;16.30;66.36;99711.81;31209017;28;116319;-76
2023/09/20 22:06:43;;;;;;;9.63;4.67;;;;;;;16.28;67.01;99697.75;31222246;27;96662;-68
2023/09/20 22:21:47;;;;;;;7.93;3.83;;;;;;;16.15;67.14;99702.19;31229037;28;96692;-65
2023/09/20 22:36:48;;;;;;;5.93;3.27;;;;;;;15.99;67.80;99689.31;31227769;28;97812;-64
2023/09/20 22:51:49;;;;;;;5.47;3.40;;;;;;;15.78;68.67;99679.72;31226147;28;97154;-68
2023/09/20 23:06:50;;;;;;;6.60;3.15;;;;;;;15.64;69.17;99665.56;31226045;28;98351;-62
2023/09/20 23:21:50;;;;;;;4.40;2.73;;;;;;;15.47;69.76;99659.88;31223745;27;97122;-62
2023/09/20 23:36:50;;;;;;;5.50;3.10;;;;;;;15.35;70.42;99655.19;31223504;28;99143;-73
2023/09/20 23:51:52;;;;;;;4.68;3.17;;;;;;;15.22;70.72;99639.16;31220753;28;108708;-74
